TimeEDT,TemperatureF,Dew PointF,Humidity,Sea Level PressureIn,VisibilityMPH,Wind Direction,Wind SpeedMPH,Gust SpeedMPH,PrecipitationIn,Events,Conditions,WindDirDegrees,DateUTC
12:15 AM,41.7,40.5,95,30.21,10.0,Calm,Calm,-,N/A,,Clear,0,2013-05-25 04:15:00
12:35 AM,41.4,40.5,97,30.21,10.0,Calm,Calm,-,N/A,,Clear,0,2013-05-25 04:35:00
12:55 AM,40.6,40.1,98,30.20,7.0,Calm,Calm,-,N/A,,Clear,0,2013-05-25 04:55:00
1:15 AM,40.6,40.3,99,30.21,10.0,Calm,Calm,-,N/A,,Clear,0,2013-05-25 05:15:00
1:35 AM,42.6,42.4,99,30.21,10.0,Calm,Calm,-,N/A,,Clear,0,2013-05-25 05:35:00
1:55 AM,39.6,38.8,97,30.21,7.0,Calm,Calm,-,N/A,,Clear,0,2013-05-25 05:55:00
2:15 AM,40.5,40.1,99,30.21,10.0,Calm,Calm,-,N/A,,Clear,0,2013-05-25 06:15:00
2:35 AM,41.5,40.5,96,30.21,10.0,Calm,Calm,-,N/A,,Clear,0,2013-05-25 06:35:00
2:55 AM,44.2,39.7,84,30.21,10.0,Calm,Calm,-,N/A,,Clear,0,2013-05-25 06:55:00
3:15 AM,41.0,38.8,92,30.21,10.0,Calm,Calm,-,N/A,,Clear,0,2013-05-25 07:15:00
3:35 AM,41.0,39.4,94,30.22,10.0,Calm,Calm,-,N/A,,Clear,0,2013-05-25 07:35:00
3:55 AM,41.9,38.3,87,30.21,10.0,Calm,Calm,-,N/A,,Clear,0,2013-05-25 07:55:00
4:15 AM,40.8,38.3,91,30.22,10.0,Calm,Calm,-,N/A,,Clear,0,2013-05-25 08:15:00
4:35 AM,40.3,38.8,95,30.22,10.0,Calm,Calm,-,N/A,,Clear,0,2013-05-25 08:35:00
4:55 AM,39.4,38.1,95,30.22,10.0,Calm,Calm,-,N/A,,Clear,0,2013-05-25 08:55:00
5:15 AM,39.0,37.2,93,30.24,10.0,Calm,Calm,-,N/A,,Clear,0,2013-05-25 09:15:00
5:35 AM,38.1,37.0,96,30.24,10.0,Calm,Calm,-,N/A,,Clear,0,2013-05-25 09:35:00
5:55 AM,38.1,37.6,98,30.24,10.0,Calm,Calm,-,N/A,,Clear,0,2013-05-25 09:55:00
6:15 AM,36.1,34.9,95,30.25,10.0,Calm,Calm,-,N/A,,Clear,0,2013-05-25 10:15:00
6:35 AM,36.3,35.6,97,30.25,7.0,Calm,Calm,-,N/A,,Clear,0,2013-05-25 10:35:00
6:55 AM,38.5,38.5,100,30.26,7.0,Calm,Calm,-,N/A,,Clear,0,2013-05-25 10:55:00
7:15 AM,42.6,41.2,95,30.26,10.0,Calm,Calm,-,N/A,,Clear,0,2013-05-25 11:15:00
7:35 AM,48.7,39.4,70,30.26,10.0,Calm,Calm,-,N/A,,Clear,0,2013-05-25 11:35:00
7:55 AM,50.7,38.7,63,30.27,10.0,Calm,Calm,-,N/A,,Clear,0,2013-05-25 11:55:00
8:15 AM,52.2,37.4,57,30.28,10.0,Calm,Calm,-,N/A,,Clear,0,2013-05-25 12:15:00
8:35 AM,53.6,36.1,52,30.27,10.0,NNW,3.5,-,N/A,,Clear,340,2013-05-25 12:35:00
8:55 AM,54.9,32.5,43,30.27,10.0,North,5.8,16.1,N/A,,Clear,350,2013-05-25 12:55:00
9:15 AM,56.3,31.6,39,30.28,10.0,NNW,6.9,-,N/A,,Clear,340,2013-05-25 13:15:00
9:35 AM,57.7,31.5,37,30.29,10.0,NNW,3.5,-,N/A,,Clear,330,2013-05-25 13:35:00
9:55 AM,59.5,32.2,36,30.28,10.0,NW,4.6,-,N/A,,Clear,310,2013-05-25 13:55:00
10:15 AM,60.1,31.5,34,30.28,10.0,NW,5.8,-,N/A,,Clear,310,2013-05-25 14:15:00
10:35 AM,61.3,31.3,32,30.27,10.0,NW,4.6,-,N/A,,Clear,310,2013-05-25 14:35:00
10:55 AM,63.0,34.5,35,30.28,10.0,WSW,4.6,-,N/A,,Clear,240,2013-05-25 14:55:00
11:15 AM,63.5,36.3,36,30.28,10.0,WSW,5.8,-,N/A,,Clear,250,2013-05-25 15:15:00
11:35 AM,64.0,36.3,36,30.28,10.0,WSW,3.5,-,N/A,,Clear,240,2013-05-25 15:35:00
11:55 AM,63.9,38.5,39,30.27,10.0,WSW,6.9,-,N/A,,Clear,250,2013-05-25 15:55:00
12:15 PM,66.0,41.5,41,30.27,10.0,West,6.9,-,N/A,,Clear,260,2013-05-25 16:15:00
12:35 PM,65.5,38.8,38,30.26,10.0,SSW,4.6,-,N/A,,Clear,210,2013-05-25 16:35:00
12:55 PM,67.1,37.6,34,30.25,10.0,West,6.9,-,N/A,,Clear,260,2013-05-25 16:55:00
1:15 PM,67.1,33.8,29,30.23,10.0,Calm,Calm,-,N/A,,Clear,0,2013-05-25 17:15:00
1:35 PM,68.2,35.2,30,30.22,10.0,Calm,Calm,-,N/A,,Clear,0,2013-05-25 17:35:00
1:55 PM,69.4,37.2,31,30.21,10.0,Calm,Calm,-,N/A,,Clear,0,2013-05-25 17:55:00
2:15 PM,70.5,35.6,28,30.20,10.0,SSW,5.8,-,N/A,,Clear,210,2013-05-25 18:15:00
2:35 PM,70.3,31.5,24,30.19,10.0,Calm,Calm,-,N/A,,Clear,0,2013-05-25 18:35:00
2:55 PM,72.7,34.9,25,30.19,10.0,West,6.9,-,N/A,,Clear,270,2013-05-25 18:55:00
3:15 PM,72.5,34.5,25,30.18,10.0,WNW,5.8,-,N/A,,Clear,300,2013-05-25 19:15:00
3:35 PM,73.0,36.0,26,30.17,10.0,SW,6.9,-,N/A,,Clear,220,2013-05-25 19:35:00
3:55 PM,73.6,34.3,24,30.17,10.0,West,5.8,-,N/A,,Clear,270,2013-05-25 19:55:00
4:15 PM,73.6,35.8,25,30.16,10.0,NW,4.6,-,N/A,,Clear,320,2013-05-25 20:15:00
4:35 PM,74.3,34.9,24,30.16,10.0,NNW,5.8,-,N/A,,Clear,330,2013-05-25 20:35:00
4:55 PM,73.4,36.0,26,30.16,10.0,NW,3.5,-,N/A,,Clear,320,2013-05-25 20:55:00
5:15 PM,74.1,36.1,25,30.15,10.0,NNW,4.6,-,N/A,,Clear,330,2013-05-25 21:15:00
5:35 PM,71.6,36.5,28,30.15,10.0,North,4.6,-,N/A,,Clear,360,2013-05-25 21:35:00
5:55 PM,72.1,38.5,29,30.15,10.0,NNW,4.6,-,N/A,,Clear,340,2013-05-25 21:55:00
6:15 PM,71.1,38.5,31,30.15,10.0,Calm,Calm,-,N/A,,Clear,0,2013-05-25 22:15:00
6:35 PM,69.8,39.4,33,30.16,10.0,Calm,Calm,-,N/A,,Clear,0,2013-05-25 22:35:00
6:55 PM,67.1,46.6,48,30.16,10.0,Calm,Calm,-,N/A,,Clear,0,2013-05-25 22:55:00
7:15 PM,65.1,49.5,57,30.16,10.0,Calm,Calm,-,N/A,,Clear,0,2013-05-25 23:15:00
7:35 PM,65.7,43.9,45,30.16,10.0,Calm,Calm,-,N/A,,Clear,0,2013-05-25 23:35:00
7:55 PM,66.4,40.8,39,30.17,10.0,Calm,Calm,-,N/A,,Clear,0,2013-05-25 23:55:00
8:15 PM,64.2,39.4,40,30.18,10.0,Calm,Calm,-,N/A,,Clear,0,2013-05-26 00:15:00
8:35 PM,62.6,37.0,39,30.18,10.0,NNW,3.5,-,N/A,,Clear,330,2013-05-26 00:35:00
8:55 PM,59.2,38.7,47,30.18,10.0,Calm,Calm,-,N/A,,Clear,0,2013-05-26 00:55:00
9:15 PM,52.9,44.2,72,30.19,10.0,Calm,Calm,-,N/A,,Clear,0,2013-05-26 01:15:00
9:35 PM,54.1,44.6,70,30.19,10.0,Calm,Calm,-,N/A,,Clear,0,2013-05-26 01:35:00
9:55 PM,57.0,37.9,49,30.20,10.0,Calm,Calm,-,N/A,,Clear,0,2013-05-26 01:55:00
10:15 PM,57.7,36.7,45,30.20,10.0,North,3.5,-,N/A,,Clear,350,2013-05-26 02:15:00
10:35 PM,58.8,34.7,40,30.21,10.0,NNW,3.5,-,N/A,,Clear,330,2013-05-26 02:35:00
10:55 PM,59.0,34.5,40,30.21,10.0,North,3.5,-,N/A,,Clear,360,2013-05-26 02:55:00
11:15 PM,59.0,35.1,41,30.21,10.0,Calm,Calm,-,N/A,,Clear,0,2013-05-26 03:15:00
11:35 PM,57.9,36.0,44,30.21,10.0,Calm,Calm,-,N/A,,Clear,0,2013-05-26 03:35:00
11:55 PM,57.4,36.5,46,30.21,10.0,Calm,Calm,-,N/A,,Clear,0,2013-05-26 03:55:00